Airfield :
LOGIN :

Register | Disclaimer

   EN    FR    IT 

 










Legend :    VFR   Marginal VFR   IFR   Intensive IFR   Very Intensive IFR
Visi :
Ceiling :
>= 8 km
>= 3000ft
5 to 8 km
1000 to 3000 ft
1500m to 5 km
500 to 1000 ft
800 to 1500m
200 to 500 ft
< 800m
< 200 ft
Symbols :   Thunderstorms  Fog  Heavy snow  Heavy precipitations  Wind > 20 kt
SIGMETs :     Misc.  Thunderstorms  Icing  Turbulence  Mountain Waves  Volcanic Ashes






- Airport Elevation : 407 ft


EGDM - MoD Boscombe Down Amesbury

CURRENT METAR :
  • 241321Z 21004KT 9999 BKN006 OVC017 06/05 Q1022 TEMPO BKN008 RMK YLO1 TEMPO GRN

EXPIRED METARs :
  • 241250Z 18004KT 9999 SCT007 OVC017 06/05 Q1022 TEMPO FEW007 RMK GRN TEMPO WHT
  • 241220Z 17002KT 9999 FEW006 OVC017 06/05 Q1023 TEMPO SCT008 RMK WHT TEMPO GRN
  • 241150Z 18003KT 9999 FEW007 OVC016 06/05 Q1023 TEMPO SCT010 BKN016 GRN RMK WHT TEMPO GRN
  • 241120Z 16002KT 9999 OVC014 05/04 Q1023 TEMPO BKN016 RMK GRN TEMPO WHT
  • 241050Z 10001KT 9999 OVC012 05/05 Q1024 NOSIG RMK GRN GRN

TAF TAF EGDM
Valid from the 24 at 12:00 until the 24 at 18:00 UTC


241053Z 2412/2418 02003KT 9999 BKN012
PROB40
TEMPO 2412/2416 BKN015
BECMG 2416/2418 5000 BR



MET'MAP, your aeronautical weather chart ! - Copyright ORBIFLY December 2007 - Disclaimer

ORBIFLY MET'MAP TEAM :

Programming & Development : Alexandra Zaïnal
Concept & original design : Baudouin d'Aumeries
Assistance for programming : Marc-Olivier Méhu
Technical & hardware support : Manuel Goepfert

Contact : metmap@orbifly.com




SOURCES & CREDITS :

   NOAA